Time;durP1;ratioP1;P1;durP2;ratioP2;P2;SDS_P1;SDS_P2;PMS_P1;PMS_P2;Temp;Humidity;BMP_temperature;BMP_pressure;BME280_temperature;BME280_humidity;BME280_pressure;Samples;Min_cycle;Max_cycle;Signal;HPM_P1;HPM_P2
2022/07/25 00:01:46;;;;;;;;;;;;;;;;;;4923309;28;19934;-73
2022/07/25 00:04:14;;;;;;;;;;;;;;;;;;4955971;28;21247;-73
2022/07/25 00:06:41;;;;;;;;;;;;;;;;;;4954684;28;20129;-73
2022/07/25 00:09:09;;;;;;;;;;;;;;;;;;4937479;28;20052;-73
2022/07/25 00:11:36;;;;;;;;;;;;;;;;;;4956129;28;19972;-73
2022/07/25 00:14:03;;;;;;;;;;;;;;;;;;4956603;28;20429;-73
2022/07/25 00:16:31;;;;;;;;;;;;;;;;;;4956027;28;20365;-73
2022/07/25 00:18:58;;;;;;;;;;;;;;;;;;4957159;28;19973;-72
2022/07/25 00:21:25;;;;;;;;;;;;;;;;;;4956453;28;20298;-73
2022/07/25 00:23:52;;;;;;;;;;;;;;;;;;4938793;28;20293;-72
2022/07/25 00:26:20;;;;;;;;;;;;;;;;;;4956878;28;19937;-72
2022/07/25 00:28:47;;;;;;;;;;;;;;;;;;4939905;28;19969;-73
2022/07/25 00:31:14;;;;;;;;;;;;;;;;;;4957530;28;19934;-72
2022/07/25 00:33:42;;;;;;;;;;;;;;;;;;4955764;28;20234;-72
2022/07/25 00:36:09;;;;;;;;;;;;;;;;;;4956300;28;20414;-72
2022/07/25 00:38:37;;;;;;;;;;;;;;;;;;4954565;28;20024;-72
2022/07/25 00:41:04;;;;;;;;;;;;;;;;;;4955544;28;19930;-73
2022/07/25 00:43:31;;;;;;;;;;;;;;;;;;4941644;28;20416;-72
2022/07/25 00:45:58;;;;;;;;;;;;;;;;;;4956292;28;19938;-73
2022/07/25 00:48:26;;;;;;;;;;;;;;;;;;4955654;28;19937;-73
2022/07/25 00:50:53;;;;;;;;;;;;;;;;;;4937057;28;19930;-72
2022/07/25 00:53:20;;;;;;;;;;;;;;;;;;4955586;28;20115;-73
2022/07/25 00:55:48;;;;;;;;;;;;;;;;;;4936289;28;19930;-72
2022/07/25 00:58:15;;;;;;;;;;;;;;;;;;4936437;28;20351;-73
2022/07/25 01:00:42;;;;;;;;;;;;;;;;;;4954894;28;19984;-73
2022/07/25 01:03:09;;;;;;;;;;;;;;;;;;4937986;28;20033;-73
2022/07/25 01:05:37;;;;;;;;;;;;;;;;;;4955832;28;20004;-73
2022/07/25 01:08:04;;;;;;;;;;;;;;;;;;4954606;28;19968;-72
2022/07/25 01:10:31;;;;;;;;;;;;;;;;;;4955098;28;20425;-73
2022/07/25 01:12:59;;;;;;;;;;;;;;;;;;4955035;28;19930;-73
2022/07/25 01:15:26;;;;;;;;;;;;;;;;;;4947159;28;20401;-73
2022/07/25 01:17:53;;;;;;;;;;;;;;;;;;4950765;28;19934;-73
2022/07/25 01:20:21;;;;;;;;;;;;;;;;;;4954424;28;20359;-72
2022/07/25 01:22:48;;;;;;;;;;;;;;;;;;4952561;28;19981;-72
2022/07/25 01:25:15;;;;;;;;;;;;;;;;;;4956100;28;19930;-72
2022/07/25 01:27:42;;;;;;;;;;;;;;;;;;4957193;28;20449;-73
2022/07/25 01:30:10;;;;;;;;;;;;;;;;;;4956698;28;20384;-73
2022/07/25 01:32:37;;;;;;;;;;;;;;;;;;4949265;28;20636;-73
2022/07/25 01:35:04;;;;;;;;;;;;;;;;;;4957452;28;20286;-73
2022/07/25 01:37:32;;;;;;;;;;;;;;;;;;4957400;28;19934;-73
2022/07/25 01:39:59;;;;;;;;;;;;;;;;;;4957044;28;20017;-72
2022/07/25 01:42:27;;;;;;;;;;;;;;;;;;4940779;28;20286;-72
2022/07/25 01:44:54;;;;;;;;;;;;;;;;;;4939282;28;20040;-73
2022/07/25 01:47:21;;;;;;;;;;;;;;;;;;4939793;28;19934;-73
2022/07/25 01:49:48;;;;;;;;;;;;;;;;;;4940354;28;19941;-73
2022/07/25 01:52:16;;;;;;;;;;;;;;;;;;4960771;28;19940;-73
2022/07/25 01:54:43;;;;;;;;;;;;;;;;;;4941055;28;19953;-73
2022/07/25 01:57:10;;;;;;;;;;;;;;;;;;4930944;28;19930;-73
2022/07/25 01:59:38;;;;;;;;;;;;;;;;;;4952348;28;19936;-73
2022/07/25 02:02:05;;;;;;;;;;;;;;;;;;4959462;28;20460;-73
2022/07/25 02:04:32;;;;;;;;;;;;;;;;;;4953733;28;19936;-73
2022/07/25 02:07:00;;;;;;;;;;;;;;;;;;4955569;28;19969;-73
2022/07/25 02:09:27;;;;;;;;;;;;;;;;;;4953315;28;20413;-73
2022/07/25 02:11:54;;;;;;;;;;;;;;;;;;4953030;28;19930;-73
2022/07/25 02:14:21;;;;;;;;;;;;;;;;;;4959308;28;20264;-73
2022/07/25 02:16:49;;;;;;;;;;;;;;;;;;4936033;28;19997;-73
2022/07/25 02:19:16;;;;;;;;;;;;;;;;;;4956752;28;19938;-73
2022/07/25 02:21:44;;;;;;;;;;;;;;;;;;4939970;28;19931;-73
2022/07/25 02:24:11;;;;;;;;;;;;;;;;;;4961261;28;19934;-73
2022/07/25 02:26:39;;;;;;;;;;;;;;;;;;4958387;28;20419;-73
2022/07/25 02:29:06;;;;;;;;;;;;;;;;;;4965285;28;19930;-73
2022/07/25 02:31:33;;;;;;;;;;;;;;;;;;4959698;28;19930;-73
2022/07/25 02:34:00;;;;;;;;;;;;;;;;;;4958084;28;20373;-73
2022/07/25 02:36:28;;;;;;;;;;;;;;;;;;4962386;28;19941;-73
2022/07/25 02:38:55;;;;;;;;;;;;;;;;;;4959593;28;20531;-73
2022/07/25 02:41:22;;;;;;;;;;;;;;;;;;4963421;28;19938;-73
2022/07/25 02:43:50;;;;;;;;;;;;;;;;;;4964179;28;19932;-73
2022/07/25 02:46:17;;;;;;;;;;;;;;;;;;4962060;28;19965;-73
2022/07/25 02:48:44;;;;;;;;;;;;;;;;;;4962323;28;19925;-73
2022/07/25 02:51:11;;;;;;;;;;;;;;;;;;4955814;28;19934;-71
2022/07/25 02:53:39;;;;;;;;;;;;;;;;;;4967380;28;19926;-74
2022/07/25 02:56:23;;;;;;;;;;;;;;;;;;4963662;28;19934;-73
2022/07/25 02:58:50;;;;;;;;;;;;;;;;;;4965221;28;19934;-73
2022/07/25 03:01:17;;;;;;;;;;;;;;;;;;4942790;28;19966;-73
2022/07/25 03:03:45;;;;;;;;;;;;;;;;;;4945461;28;20305;-73
2022/07/25 03:06:12;;;;;;;;;;;;;;;;;;4959249;28;19988;-73
2022/07/25 03:08:39;;;;;;;;;;;;;;;;;;4963599;28;19930;-73
2022/07/25 03:11:06;;;;;;;;;;;;;;;;;;4961892;28;19977;-73
2022/07/25 03:13:34;;;;;;;;;;;;;;;;;;4963273;28;19930;-73
2022/07/25 03:16:01;;;;;;;;;;;;;;;;;;4941335;28;19926;-73
2022/07/25 03:18:28;;;;;;;;;;;;;;;;;;4962779;28;19937;-74
2022/07/25 03:20:56;;;;;;;;;;;;;;;;;;4938882;28;20020;-73
2022/07/25 03:23:25;;;;;;;;;;;;;;;;;;4953874;28;19933;-73
2022/07/25 03:25:53;;;;;;;;;;;;;;;;;;4961841;28;20032;-74
2022/07/25 03:28:20;;;;;;;;;;;;;;;;;;4947071;28;19954;-74
2022/07/25 03:30:47;;;;;;;;;;;;;;;;;;4965977;28;19938;-74
2022/07/25 03:33:14;;;;;;;;;;;;;;;;;;4963924;28;19934;-74
2022/07/25 03:35:42;;;;;;;;;;;;;;;;;;4961917;28;20169;-74
2022/07/25 03:38:09;;;;;;;;;;;;;;;;;;4961668;28;19950;-74
2022/07/25 03:40:37;;;;;;;;;;;;;;;;;;4961960;28;20207;-74
2022/07/25 03:43:04;;;;;;;;;;;;;;;;;;4965515;28;19931;-74
2022/07/25 03:45:31;;;;;;;;;;;;;;;;;;4961906;28;19930;-74
2022/07/25 03:47:58;;;;;;;;;;;;;;;;;;4962583;28;20445;-74
2022/07/25 03:50:26;;;;;;;;;;;;;;;;;;4958185;28;20033;-74
2022/07/25 03:52:53;;;;;;;;;;;;;;;;;;4955787;28;19936;-75
2022/07/25 03:55:20;;;;;;;;;;;;;;;;;;4953319;28;19939;-74
2022/07/25 03:57:47;;;;;;;;;;;;;;;;;;4943372;28;19933;-74
2022/07/25 04:00:15;;;;;;;;;;;;;;;;;;4956712;28;20358;-73
2022/07/25 04:02:42;;;;;;;;;;;;;;;;;;4958775;28;19934;-72
2022/07/25 04:05:09;;;;;;;;;;;;;;;;;;4955191;28;19930;-72
2022/07/25 04:07:37;;;;;;;;;;;;;;;;;;4954565;28;19934;-72
2022/07/25 04:10:04;;;;;;;;;;;;;;;;;;4947365;28;20414;-73
2022/07/25 04:12:31;;;;;;;;;;;;;;;;;;4957031;28;19926;-73
2022/07/25 04:14:59;;;;;;;;;;;;;;;;;;4942868;28;19974;-73
2022/07/25 04:17:26;;;;;;;;;;;;;;;;;;4938456;28;20033;-73
2022/07/25 04:19:53;;;;;;;;;;;;;;;;;;4958286;28;20020;-73
2022/07/25 04:22:21;;;;;;;;;;;;;;;;;;4950011;28;20428;-73
2022/07/25 04:24:48;;;;;;;;;;;;;;;;;;4955727;28;19937;-73
2022/07/25 04:27:15;;;;;;;;;;;;;;;;;;4950934;28;20241;-73
2022/07/25 04:29:43;;;;;;;;;;;;;;;;;;4956279;28;19934;-73
2022/07/25 04:32:10;;;;;;;;;;;;;;;;;;4956566;28;20260;-73
2022/07/25 04:34:37;;;;;;;;;;;;;;;;;;4964990;28;19936;-73
2022/07/25 04:37:05;;;;;;;;;;;;;;;;;;4938885;28;20321;-73
2022/07/25 04:39:32;;;;;;;;;;;;;;;;;;4957140;28;20599;-73
2022/07/25 04:42:00;;;;;;;;;;;;;;;;;;4931813;29;19931;-72
2022/07/25 04:44:27;;;;;;;;;;;;;;;;;;4955701;28;20291;-73
2022/07/25 04:46:54;;;;;;;;;;;;;;;;;;4951276;28;19934;-74
2022/07/25 04:49:22;;;;;;;;;;;;;;;;;;4951639;28;19934;-73
2022/07/25 04:51:49;;;;;;;;;;;;;;;;;;4950234;28;20170;-73
2022/07/25 04:54:16;;;;;;;;;;;;;;;;;;4950940;28;19945;-73
2022/07/25 04:56:43;;;;;;;;;;;;;;;;;;4950977;28;19944;-73
2022/07/25 04:59:11;;;;;;;;;;;;;;;;;;4956980;28;19953;-73
2022/07/25 05:01:38;;;;;;;;;;;;;;;;;;4954952;28;19954;-73
2022/07/25 05:04:05;;;;;;;;;;;;;;;;;;4935124;28;20020;-73
2022/07/25 05:06:33;;;;;;;;;;;;;;;;;;4954844;28;19938;-73
2022/07/25 05:09:00;;;;;;;;;;;;;;;;;;4961359;28;19936;-73
2022/07/25 05:11:28;;;;;;;;;;;;;;;;;;4963579;28;20460;-73
2022/07/25 05:13:56;;;;;;;;;;;;;;;;;;4951429;28;20012;-73
2022/07/25 05:16:23;;;;;;;;;;;;;;;;;;4980600;23;21335;-78
2022/07/25 05:18:51;;;;;;;;;;;;;;;;;;4959134;28;19981;-76
2022/07/25 05:21:18;;;;;;;;;;;;;;;;;;4924824;28;19927;-77
2022/07/25 05:23:45;;;;;;;;;;;;;;;;;;4942948;29;20314;-78
2022/07/25 05:26:12;;;;;;;;;;;;;;;;;;4946219;28;19926;-77
2022/07/25 05:28:40;;;;;;;;;;;;;;;;;;4939366;29;20354;-78
2022/07/25 05:31:07;;;;;;;;;;;;;;;;;;4941534;28;20011;-77
2022/07/25 05:33:34;;;;;;;;;;;;;;;;;;4932545;29;19985;-77
2022/07/25 05:36:03;;;;;;;;;;;;;;;;;;4945479;28;19938;-76
2022/07/25 05:38:30;;;;;;;;;;;;;;;;;;4937502;28;19997;-78
2022/07/25 05:40:57;;;;;;;;;;;;;;;;;;4944289;28;19931;-76
2022/07/25 05:43:25;;;;;;;;;;;;;;;;;;4938070;28;19926;-76
2022/07/25 05:45:52;;;;;;;;;;;;;;;;;;4927286;29;19977;-76
2022/07/25 05:48:19;;;;;;;;;;;;;;;;;;4930135;28;19934;-77
2022/07/25 05:50:47;;;;;;;;;;;;;;;;;;4943051;28;19926;-78
2022/07/25 05:53:14;;;;;;;;;;;;;;;;;;4941552;28;19935;-77
2022/07/25 05:55:41;;;;;;;;;;;;;;;;;;4941868;28;20041;-79
2022/07/25 05:58:09;;;;;;;;;;;;;;;;;;4946831;28;19930;-77
2022/07/25 06:00:36;;;;;;;;;;;;;;;;;;4943289;28;19930;-77
2022/07/25 06:03:03;;;;;;;;;;;;;;;;;;4943262;28;20394;-78
2022/07/25 06:05:31;;;;;;;;;;;;;;;;;;4941560;28;20350;-78
2022/07/25 06:07:58;;;;;;;;;;;;;;;;;;4934294;29;19931;-79
2022/07/25 06:10:26;;;;;;;;;;;;;;;;;;4942438;28;20367;-76
2022/07/25 06:12:53;;;;;;;;;;;;;;;;;;4945556;29;19926;-79
2022/07/25 06:15:20;;;;;;;;;;;;;;;;;;4937253;28;19931;-78
2022/07/25 06:17:48;;;;;;;;;;;;;;;;;;4939239;28;19973;-76
2022/07/25 06:20:16;;;;;;;;;;;;;;;;;;4919083;29;19926;-79
2022/07/25 06:22:43;;;;;;;;;;;;;;;;;;4943544;28;19978;-76
2022/07/25 06:25:11;;;;;;;;;;;;;;;;;;4936497;29;19934;-79
2022/07/25 06:27:38;;;;;;;;;;;;;;;;;;4933651;28;19926;-79
2022/07/25 06:30:06;;;;;;;;;;;;;;;;;;4938567;28;19941;-76
2022/07/25 06:32:45;;;;;;;;;;;;;;;;;;4924535;29;19934;-75
2022/07/25 06:35:12;;;;;;;;;;;;;;;;;;4940641;28;19926;-77
2022/07/25 06:37:39;;;;;;;;;;;;;;;;;;4939793;29;19930;-79
2022/07/25 06:40:06;;;;;;;;;;;;;;;;;;4930467;28;19943;-77
2022/07/25 06:42:34;;;;;;;;;;;;;;;;;;4942735;28;20029;-76
2022/07/25 06:45:01;;;;;;;;;;;;;;;;;;4941354;28;19939;-77
2022/07/25 06:47:29;;;;;;;;;;;;;;;;;;4941378;28;19926;-77
2022/07/25 06:50:01;;;;;;;;;;;;;;;;;;4941742;28;19934;-78
2022/07/25 06:52:28;;;;;;;;;;;;;;;;;;4946882;28;19930;-77
2022/07/25 06:54:56;;;;;;;;;;;;;;;;;;4941604;28;19988;-73
2022/07/25 06:57:23;;;;;;;;;;;;;;;;;;4945392;28;19941;-73
2022/07/25 06:59:50;;;;;;;;;;;;;;;;;;4934176;28;19931;-74
2022/07/25 07:02:17;;;;;;;;;;;;;;;;;;4942462;28;19930;-78
2022/07/25 07:04:45;;;;;;;;;;;;;;;;;;4940717;28;19939;-74
2022/07/25 07:07:12;;;;;;;;;;;;;;;;;;4942732;28;19938;-74
2022/07/25 07:09:39;;;;;;;;;;;;;;;;;;4944333;28;19926;-75
2022/07/25 07:12:07;;;;;;;;;;;;;;;;;;4945760;28;20263;-74
2022/07/25 07:14:36;;;;;;;;;;;;;;;;;;4959693;28;19989;-73
2022/07/25 07:17:03;;;;;;;;;;;;;;;;;;4946746;28;19927;-74
2022/07/25 07:19:31;;;;;;;;;;;;;;;;;;4948536;28;20409;-74
2022/07/25 07:21:58;;;;;;;;;;;;;;;;;;4949974;29;20310;-74
2022/07/25 07:24:25;;;;;;;;;;;;;;;;;;4949940;28;19930;-74
2022/07/25 07:26:52;;;;;;;;;;;;;;;;;;4933149;29;19933;-75
2022/07/25 07:29:20;;;;;;;;;;;;;;;;;;4949088;29;19966;-75
2022/07/25 07:31:47;;;;;;;;;;;;;;;;;;4950752;28;19930;-74
2022/07/25 07:34:14;;;;;;;;;;;;;;;;;;4934241;29;19935;-74
2022/07/25 07:36:42;;;;;;;;;;;;;;;;;;4950537;29;19935;-75
2022/07/25 07:39:10;;;;;;;;;;;;;;;;;;4944232;29;20319;-75
2022/07/25 07:41:37;;;;;;;;;;;;;;;;;;4944755;28;19926;-75
2022/07/25 07:44:04;;;;;;;;;;;;;;;;;;4930965;28;19978;-75
2022/07/25 07:46:31;;;;;;;;;;;;;;;;;;4949150;28;19953;-75
2022/07/25 07:48:59;;;;;;;;;;;;;;;;;;4949915;28;20369;-76
2022/07/25 07:51:26;;;;;;;;;;;;;;;;;;4934932;29;19930;-75
2022/07/25 07:56:40;;;;;;;;;;;;;;;;;;4949713;29;19926;-76
2022/07/25 07:59:08;;;;;;;;;;;;;;;;;;4951116;29;19938;-76
2022/07/25 08:01:35;;;;;;;;;;;;;;;;;;4950643;28;19950;-76
2022/07/25 08:04:02;;;;;;;;;;;;;;;;;;4945362;28;19938;-75
2022/07/25 08:06:30;;;;;;;;;;;;;;;;;;4946913;28;19934;-74
2022/07/25 08:08:57;;;;;;;;;;;;;;;;;;4932829;29;19931;-76
2022/07/25 08:11:25;;;;;;;;;;;;;;;;;;4941817;28;19934;-74
2022/07/25 08:13:52;;;;;;;;;;;;;;;;;;4938686;28;19931;-74
2022/07/25 08:16:19;;;;;;;;;;;;;;;;;;4928582;28;20018;-74
2022/07/25 08:18:47;;;;;;;;;;;;;;;;;;4936320;28;19937;-75
2022/07/25 08:21:14;;;;;;;;;;;;;;;;;;4925771;29;20404;-75
2022/07/25 08:23:45;;;;;;;;;;;;;;;;;;4938336;28;19937;-75
2022/07/25 08:26:15;;;;;;;;;;;;;;;;;;4942047;29;19934;-76
2022/07/25 08:28:42;;;;;;;;;;;;;;;;;;4944460;29;19930;-75
2022/07/25 08:31:09;;;;;;;;;;;;;;;;;;4949679;28;19930;-75
2022/07/25 08:33:37;;;;;;;;;;;;;;;;;;4946476;28;19934;-75
2022/07/25 08:36:04;;;;;;;;;;;;;;;;;;4945949;28;19931;-76
2022/07/25 08:38:33;;;;;;;;;;;;;;;;;;4949830;29;20029;-73
2022/07/25 08:41:01;;;;;;;;;;;;;;;;;;4923948;29;19967;-75
2022/07/25 08:43:31;;;;;;;;;;;;;;;;;;4921537;29;19966;-74
2022/07/25 08:45:59;;;;;;;;;;;;;;;;;;4941603;28;20331;-75
2022/07/25 08:48:26;;;;;;;;;;;;;;;;;;4929274;28;19985;-75
2022/07/25 08:50:55;;;;;;;;;;;;;;;;;;4938336;28;19931;-75
2022/07/25 08:53:23;;;;;;;;;;;;;;;;;;4939505;28;19935;-74
2022/07/25 08:56:05;;;;;;;;;;;;;;;;;;4935229;29;20394;-74
2022/07/25 08:58:40;;;;;;;;;;;;;;;;;;4945803;28;19930;-75
2022/07/25 09:01:10;;;;;;;;;;;;;;;;;;4939777;28;19930;-74
2022/07/25 09:03:39;;;;;;;;;;;;;;;;;;4941154;28;20303;-75
2022/07/25 09:06:06;;;;;;;;;;;;;;;;;;4918112;29;19927;-73
2022/07/25 09:08:33;;;;;;;;;;;;;;;;;;4944733;28;19956;-75
2022/07/25 09:11:00;;;;;;;;;;;;;;;;;;4939912;28;19930;-75
2022/07/25 09:13:37;;;;;;;;;;;;;;;;;;4920603;29;20465;-75
2022/07/25 09:16:04;;;;;;;;;;;;;;;;;;4922398;29;19926;-75
2022/07/25 09:18:32;;;;;;;;;;;;;;;;;;4946684;29;19989;-76
2022/07/25 09:21:00;;;;;;;;;;;;;;;;;;4947070;28;19973;-75
2022/07/25 09:23:27;;;;;;;;;;;;;;;;;;4948594;29;19937;-76
2022/07/25 09:25:54;;;;;;;;;;;;;;;;;;4948205;29;19927;-76
2022/07/25 09:28:22;;;;;;;;;;;;;;;;;;4931481;29;19930;-75
2022/07/25 09:30:49;;;;;;;;;;;;;;;;;;4949041;28;19973;-75
2022/07/25 09:33:16;;;;;;;;;;;;;;;;;;4947642;28;19930;-75
2022/07/25 09:35:44;;;;;;;;;;;;;;;;;;4946907;28;19937;-74
2022/07/25 09:38:11;;;;;;;;;;;;;;;;;;4947402;28;19926;-74
2022/07/25 09:40:38;;;;;;;;;;;;;;;;;;4948480;28;20220;-75
2022/07/25 09:43:05;;;;;;;;;;;;;;;;;;4948247;28;19926;-74
2022/07/25 09:45:33;;;;;;;;;;;;;;;;;;4944488;29;20396;-75
2022/07/25 09:48:00;;;;;;;;;;;;;;;;;;4942040;28;19930;-76
2022/07/25 09:50:27;;;;;;;;;;;;;;;;;;4941119;28;19946;-75
2022/07/25 09:52:55;;;;;;;;;;;;;;;;;;4944190;28;19969;-74
2022/07/25 09:55:23;;;;;;;;;;;;;;;;;;4946433;28;19930;-76
2022/07/25 09:57:51;;;;;;;;;;;;;;;;;;4947450;29;19938;-75
2022/07/25 10:00:19;;;;;;;;;;;;;;;;;;4948467;29;19986;-74
2022/07/25 10:02:46;;;;;;;;;;;;;;;;;;4948482;28;19930;-75
2022/07/25 10:05:14;;;;;;;;;;;;;;;;;;4947866;28;19934;-75
2022/07/25 10:07:41;;;;;;;;;;;;;;;;;;4931393;29;19930;-76
2022/07/25 10:10:08;;;;;;;;;;;;;;;;;;4948656;28;19989;-75
2022/07/25 10:12:37;;;;;;;;;;;;;;;;;;4960809;28;19941;-75
2022/07/25 10:15:04;;;;;;;;;;;;;;;;;;4948262;28;19930;-76
2022/07/25 10:17:31;;;;;;;;;;;;;;;;;;4957210;28;19927;-73
2022/07/25 10:20:00;;;;;;;;;;;;;;;;;;4944478;28;19941;-72
2022/07/25 10:22:27;;;;;;;;;;;;;;;;;;4944380;28;19931;-74
2022/07/25 10:25:14;;;;;;;;;;;;;;;;;;4948988;29;20386;-73
2022/07/25 10:27:41;;;;;;;;;;;;;;;;;;4948847;29;20299;-72
2022/07/25 10:30:09;;;;;;;;;;;;;;;;;;4948380;28;19930;-73
2022/07/25 10:32:36;;;;;;;;;;;;;;;;;;4931401;29;20221;-73
2022/07/25 10:35:03;;;;;;;;;;;;;;;;;;4931286;29;19982;-72
2022/07/25 10:37:31;;;;;;;;;;;;;;;;;;4948670;29;20391;-72
2022/07/25 10:39:58;;;;;;;;;;;;;;;;;;4948726;28;19966;-75
2022/07/25 10:42:25;;;;;;;;;;;;;;;;;;4931427;29;19966;-75
2022/07/25 10:44:53;;;;;;;;;;;;;;;;;;4947840;29;19961;-73
2022/07/25 10:47:20;;;;;;;;;;;;;;;;;;4946031;28;19957;-72
2022/07/25 10:49:48;;;;;;;;;;;;;;;;;;4951568;28;20002;-73
2022/07/25 10:52:35;;;;;;;;;;;;;;;;;;4951881;28;20041;-71
2022/07/25 10:55:02;;;;;;;;;;;;;;;;;;4951190;29;19926;-73
2022/07/25 10:57:30;;;;;;;;;;;;;;;;;;4950735;28;20025;-74
2022/07/25 10:59:58;;;;;;;;;;;;;;;;;;4951320;28;19937;-75
2022/07/25 11:02:25;;;;;;;;;;;;;;;;;;4951447;29;19934;-74
2022/07/25 11:04:53;;;;;;;;;;;;;;;;;;4950456;28;20018;-74
2022/07/25 11:07:20;;;;;;;;;;;;;;;;;;4946196;28;20485;-74
2022/07/25 11:09:47;;;;;;;;;;;;;;;;;;4946351;28;19933;-74
2022/07/25 11:12:15;;;;;;;;;;;;;;;;;;4950388;28;19926;-74
2022/07/25 11:14:42;;;;;;;;;;;;;;;;;;4951029;28;19931;-74
2022/07/25 11:17:09;;;;;;;;;;;;;;;;;;4977583;23;19930;-74
2022/07/25 11:19:37;;;;;;;;;;;;;;;;;;4963355;28;19938;-73
2022/07/25 11:22:04;;;;;;;;;;;;;;;;;;4967496;28;20077;-75
2022/07/25 11:24:31;;;;;;;;;;;;;;;;;;4954937;28;19982;-75
2022/07/25 11:26:59;;;;;;;;;;;;;;;;;;4962100;28;19989;-74
2022/07/25 11:29:26;;;;;;;;;;;;;;;;;;4963101;28;19935;-73
2022/07/25 11:31:53;;;;;;;;;;;;;;;;;;4967963;28;20416;-74
2022/07/25 11:34:22;;;;;;;;;;;;;;;;;;4959903;28;20013;-74
2022/07/25 11:36:49;;;;;;;;;;;;;;;;;;4958395;28;19941;-74
2022/07/25 11:39:16;;;;;;;;;;;;;;;;;;4956904;28;19930;-74
2022/07/25 11:41:45;;;;;;;;;;;;;;;;;;4960624;28;19996;-75
2022/07/25 11:44:12;;;;;;;;;;;;;;;;;;4965113;28;19926;-75
2022/07/25 11:46:40;;;;;;;;;;;;;;;;;;4966441;28;19973;-73
2022/07/25 11:49:07;;;;;;;;;;;;;;;;;;4947853;28;20021;-73
2022/07/25 11:51:35;;;;;;;;;;;;;;;;;;4957066;28;20905;-75
2022/07/25 11:54:02;;;;;;;;;;;;;;;;;;4960245;28;19978;-76
2022/07/25 11:56:29;;;;;;;;;;;;;;;;;;4961315;28;19926;-74
2022/07/25 11:59:08;;;;;;;;;;;;;;;;;;4961593;28;19926;-75
2022/07/25 12:01:36;;;;;;;;;;;;;;;;;;4963982;28;20271;-75
2022/07/25 12:04:04;;;;;;;;;;;;;;;;;;4961263;28;20359;-74
2022/07/25 12:06:31;;;;;;;;;;;;;;;;;;4956036;28;19926;-74
2022/07/25 12:08:59;;;;;;;;;;;;;;;;;;4956340;28;19931;-74
2022/07/25 12:11:26;;;;;;;;;;;;;;;;;;4946802;28;20449;-76
2022/07/25 12:13:53;;;;;;;;;;;;;;;;;;4963139;28;19937;-75
2022/07/25 12:16:20;;;;;;;;;;;;;;;;;;4956160;28;20487;-75
2022/07/25 12:18:48;;;;;;;;;;;;;;;;;;4959146;28;20394;-75
2022/07/25 12:21:15;;;;;;;;;;;;;;;;;;4958524;28;19942;-75
2022/07/25 12:23:42;;;;;;;;;;;;;;;;;;4956215;28;19987;-74
2022/07/25 12:26:10;;;;;;;;;;;;;;;;;;4957382;28;19930;-74
2022/07/25 12:28:37;;;;;;;;;;;;;;;;;;4957090;28;19984;-74
2022/07/25 12:31:04;;;;;;;;;;;;;;;;;;4968042;28;20741;-75
2022/07/25 12:33:32;;;;;;;;;;;;;;;;;;4962979;28;20039;-75
2022/07/25 12:35:59;;;;;;;;;;;;;;;;;;4960573;28;19937;-75
2022/07/25 12:38:30;;;;;;;;;;;;;;;;;;4943989;28;19926;-75
2022/07/25 12:40:57;;;;;;;;;;;;;;;;;;4967791;28;19936;-74
2022/07/25 12:43:24;;;;;;;;;;;;;;;;;;4962282;28;19926;-74
2022/07/25 12:45:52;;;;;;;;;;;;;;;;;;4964500;28;19934;-73
2022/07/25 12:48:19;;;;;;;;;;;;;;;;;;4956421;28;19935;-75
2022/07/25 12:50:46;;;;;;;;;;;;;;;;;;4961284;28;19930;-75
2022/07/25 12:53:14;;;;;;;;;;;;;;;;;;4960598;28;20034;-74
2022/07/25 12:55:41;;;;;;;;;;;;;;;;;;4963680;28;19927;-74
2022/07/25 12:58:08;;;;;;;;;;;;;;;;;;4964325;28;19934;-75
2022/07/25 13:00:35;;;;;;;;;;;;;;;;;;4959018;28;19930;-74
2022/07/25 13:03:03;;;;;;;;;;;;;;;;;;4952363;28;19930;-75
2022/07/25 13:05:30;;;;;;;;;;;;;;;;;;4955525;28;19930;-74
2022/07/25 13:07:57;;;;;;;;;;;;;;;;;;4957907;28;19973;-75
2022/07/25 13:10:25;;;;;;;;;;;;;;;;;;4960557;28;19937;-74
2022/07/25 13:12:52;;;;;;;;;;;;;;;;;;4962224;28;19938;-76
2022/07/25 13:15:22;;;;;;;;;;;;;;;;;;4955401;28;20008;-74
2022/07/25 13:17:49;;;;;;;;;;;;;;;;;;4958159;28;20127;-74
2022/07/25 13:20:16;;;;;;;;;;;;;;;;;;4964421;28;20465;-74
2022/07/25 13:22:44;;;;;;;;;;;;;;;;;;4953737;28;19930;-74
2022/07/25 13:25:11;;;;;;;;;;;;;;;;;;4953832;28;19937;-75
2022/07/25 13:27:38;;;;;;;;;;;;;;;;;;4966921;28;20033;-76
2022/07/25 13:30:06;;;;;;;;;;;;;;;;;;4962927;28;19936;-73
2022/07/25 13:32:33;;;;;;;;;;;;;;;;;;4955125;28;19996;-73
2022/07/25 13:35:00;;;;;;;;;;;;;;;;;;4960255;28;19973;-74
2022/07/25 13:37:27;;;;;;;;;;;;;;;;;;4959187;28;19930;-73
2022/07/25 13:39:55;;;;;;;;;;;;;;;;;;4957861;28;19941;-73
2022/07/25 13:42:22;;;;;;;;;;;;;;;;;;4961319;28;19937;-73
2022/07/25 13:44:49;;;;;;;;;;;;;;;;;;4957256;28;19930;-73
2022/07/25 13:47:16;;;;;;;;;;;;;;;;;;4963682;28;19930;-75
2022/07/25 13:49:44;;;;;;;;;;;;;;;;;;4958543;28;19969;-73
2022/07/25 13:52:11;;;;;;;;;;;;;;;;;;4965501;28;19926;-73
2022/07/25 13:54:38;;;;;;;;;;;;;;;;;;4961514;28;20317;-74
2022/07/25 13:57:05;;;;;;;;;;;;;;;;;;4962751;28;19942;-74
2022/07/25 13:59:33;;;;;;;;;;;;;;;;;;4945701;28;19930;-74
2022/07/25 14:02:00;;;;;;;;;;;;;;;;;;4952895;28;20433;-74
2022/07/25 14:04:27;;;;;;;;;;;;;;;;;;4959072;28;20012;-74
2022/07/25 14:06:55;;;;;;;;;;;;;;;;;;4967540;28;19930;-74
2022/07/25 14:09:22;;;;;;;;;;;;;;;;;;4968495;28;20017;-74
2022/07/25 14:11:50;;;;;;;;;;;;;;;;;;4953092;28;19926;-74
2022/07/25 14:14:17;;;;;;;;;;;;;;;;;;4949120;28;19936;-74
2022/07/25 14:16:44;;;;;;;;;;;;;;;;;;4933856;28;20409;-74
2022/07/25 14:19:12;;;;;;;;;;;;;;;;;;4967762;28;19985;-74
2022/07/25 14:21:39;;;;;;;;;;;;;;;;;;4967601;28;19930;-74
2022/07/25 14:24:06;;;;;;;;;;;;;;;;;;4967636;28;19972;-74
2022/07/25 14:26:34;;;;;;;;;;;;;;;;;;4967996;28;19937;-74
2022/07/25 14:29:01;;;;;;;;;;;;;;;;;;4967743;28;19937;-74
2022/07/25 14:31:28;;;;;;;;;;;;;;;;;;4967595;28;19981;-74
2022/07/25 14:33:55;;;;;;;;;;;;;;;;;;4967513;28;19930;-74
2022/07/25 14:36:23;;;;;;;;;;;;;;;;;;4968133;28;20113;-75
2022/07/25 14:38:50;;;;;;;;;;;;;;;;;;4963821;28;20408;-74
2022/07/25 14:41:17;;;;;;;;;;;;;;;;;;4966650;28;19933;-74
2022/07/25 14:43:44;;;;;;;;;;;;;;;;;;4967478;28;19930;-74
2022/07/25 14:46:11;;;;;;;;;;;;;;;;;;4956950;28;19926;-74
2022/07/25 14:48:39;;;;;;;;;;;;;;;;;;4965889;28;20353;-74
2022/07/25 14:51:06;;;;;;;;;;;;;;;;;;4947677;28;20009;-73
2022/07/25 14:53:33;;;;;;;;;;;;;;;;;;4952302;28;19941;-74
2022/07/25 14:56:01;;;;;;;;;;;;;;;;;;4954961;28;19985;-74
2022/07/25 14:58:28;;;;;;;;;;;;;;;;;;4962197;28;20044;-74
2022/07/25 15:00:55;;;;;;;;;;;;;;;;;;4960135;28;20049;-74
2022/07/25 15:03:23;;;;;;;;;;;;;;;;;;4927561;28;19934;-74
2022/07/25 15:05:50;;;;;;;;;;;;;;;;;;4961647;28;19980;-73
2022/07/25 15:08:17;;;;;;;;;;;;;;;;;;4963990;28;20032;-74
2022/07/25 15:10:44;;;;;;;;;;;;;;;;;;4945016;28;19973;-73
2022/07/25 15:13:12;;;;;;;;;;;;;;;;;;4967305;28;20515;-73
2022/07/25 15:15:56;;;;;;;;;;;;;;;;;;4950831;28;19930;-74
2022/07/25 15:18:24;;;;;;;;;;;;;;;;;;4948795;28;20317;-73
2022/07/25 15:20:52;;;;;;;;;;;;;;;;;;4963709;28;19930;-74
2022/07/25 15:23:23;;;;;;;;;;;;;;;;;;4958950;28;19930;-74
2022/07/25 15:25:51;;;;;;;;;;;;;;;;;;4962199;28;19934;-73
2022/07/25 15:28:33;;;;;;;;;;;;;;;;;;4962096;28;19978;-73
2022/07/25 15:31:01;;;;;;;;;;;;;;;;;;4968818;28;19969;-73
2022/07/25 15:33:28;;;;;;;;;;;;;;;;;;4960867;28;20017;-73
2022/07/25 15:35:55;;;;;;;;;;;;;;;;;;4979396;28;19926;-73
2022/07/25 15:38:23;;;;;;;;;;;;;;;;;;4979483;28;19934;-74
2022/07/25 15:40:50;;;;;;;;;;;;;;;;;;4984927;28;19930;-73
2022/07/25 15:43:17;;;;;;;;;;;;;;;;;;4980531;28;20013;-75
2022/07/25 15:45:45;;;;;;;;;;;;;;;;;;4991116;28;19957;-74
2022/07/25 15:48:12;;;;;;;;;;;;;;;;;;4992655;28;19936;-73
2022/07/25 15:50:39;;;;;;;;;;;;;;;;;;4980260;28;19925;-73
2022/07/25 15:53:06;;;;;;;;;;;;;;;;;;4994406;28;19929;-74
2022/07/25 15:55:34;;;;;;;;;;;;;;;;;;4982883;28;19961;-74
2022/07/25 15:58:01;;;;;;;;;;;;;;;;;;4977389;28;19999;-73
2022/07/25 16:00:29;;;;;;;;;;;;;;;;;;4977143;28;19953;-72
2022/07/25 16:02:57;;;;;;;;;;;;;;;;;;4977166;28;19934;-74
2022/07/25 16:05:24;;;;;;;;;;;;;;;;;;4958028;28;19930;-75
2022/07/25 16:07:51;;;;;;;;;;;;;;;;;;4974289;28;20397;-76
2022/07/25 16:10:18;;;;;;;;;;;;;;;;;;4971353;28;19932;-74
2022/07/25 16:12:46;;;;;;;;;;;;;;;;;;4970318;28;19976;-74
2022/07/25 16:15:13;;;;;;;;;;;;;;;;;;4969543;28;20030;-74
2022/07/25 16:17:41;;;;;;;;;;;;;;;;;;4968286;28;19936;-73
2022/07/25 16:20:09;;;;;;;;;;;;;;;;;;4960632;28;19930;-74
2022/07/25 16:22:36;;;;;;;;;;;;;;;;;;4957793;28;20024;-73
2022/07/25 16:25:04;;;;;;;;;;;;;;;;;;4961985;28;19930;-73
2022/07/25 16:27:31;;;;;;;;;;;;;;;;;;4958500;28;19927;-74
2022/07/25 16:29:58;;;;;;;;;;;;;;;;;;4967076;28;19930;-74
2022/07/25 16:32:25;;;;;;;;;;;;;;;;;;4959146;28;19926;-75
2022/07/25 16:34:53;;;;;;;;;;;;;;;;;;4964725;28;19934;-74
2022/07/25 16:37:20;;;;;;;;;;;;;;;;;;4967709;28;20206;-74
2022/07/25 16:39:47;;;;;;;;;;;;;;;;;;4968602;28;20068;-74
2022/07/25 16:42:14;;;;;;;;;;;;;;;;;;4962459;28;20478;-74
2022/07/25 16:44:42;;;;;;;;;;;;;;;;;;4955573;28;19930;-74
2022/07/25 16:47:09;;;;;;;;;;;;;;;;;;4957944;28;20000;-74
2022/07/25 16:49:37;;;;;;;;;;;;;;;;;;4964347;28;19942;-74
2022/07/25 16:52:04;;;;;;;;;;;;;;;;;;4964379;28;20306;-73